Time;durP1;ratioP1;P1;durP2;ratioP2;P2;SDS_P1;SDS_P2;PMS_P1;PMS_P2;Temp;Humidity;BMP_temperature;BMP_pressure;BME280_temperature;BME280_humidity;BME280_pressure;Samples;Min_cycle;Max_cycle;Signal;HPM_P1;HPM_P2
2020/12/19 00:02:12;;;;;;;70.10;14.32;;;3.40;99.90;;;;;;5055241;28;20267;-66
2020/12/19 00:04:38;;;;;;;68.32;13.00;;;3.40;99.70;;;;;;5056553;28;20217;-67
2020/12/19 00:07:04;;;;;;;70.97;13.93;;;3.40;99.90;;;;;;5052829;28;20252;-66
2020/12/19 00:09:32;;;;;;;69.82;13.18;;;3.40;99.80;;;;;;5052663;28;20226;-67
2020/12/19 00:11:58;;;;;;;70.85;13.85;;;3.30;99.90;;;;;;5052538;28;20248;-67
2020/12/19 00:14:25;;;;;;;70.38;14.57;;;3.30;99.50;;;;;;5052856;28;20212;-67
2020/12/19 00:16:51;;;;;;;71.57;14.65;;;3.30;99.90;;;;;;5052675;28;20216;-67
2020/12/19 00:19:17;;;;;;;70.65;14.32;;;3.20;99.90;;;;;;5052249;28;20661;-67
2020/12/19 00:21:43;;;;;;;69.75;14.63;;;3.20;99.90;;;;;;5052311;28;20719;-67
2020/12/19 00:24:10;;;;;;;72.78;14.38;;;3.20;99.90;;;;;;5052131;28;20229;-66
2020/12/19 00:26:38;;;;;;;72.30;15.38;;;3.20;99.90;;;;;;5052385;28;20287;-66
2020/12/19 00:29:06;;;;;;;71.47;15.98;;;3.20;99.90;;;;;;5052072;28;20713;-67
2020/12/19 00:31:33;;;;;;;74.80;15.45;;;3.20;99.90;;;;;;5052005;28;20222;-67
2020/12/19 00:33:59;;;;;;;71.85;15.10;;;3.20;99.90;;;;;;5051738;28;20723;-66
2020/12/19 00:36:26;;;;;;;75.53;16.60;;;3.20;99.90;;;;;;5051282;28;20205;-66
2020/12/19 00:38:52;;;;;;;72.85;15.32;;;3.20;99.90;;;;;;5051463;28;20236;-67
2020/12/19 00:41:20;;;;;;;71.25;14.18;;;3.30;99.90;;;;;;5048211;28;20706;-66
2020/12/19 00:43:47;;;;;;;72.47;14.98;;;3.30;99.90;;;;;;5050779;28;20201;-66
2020/12/19 00:46:14;;;;;;;69.53;15.07;;;3.30;99.90;;;;;;5051980;28;20225;-66
2020/12/19 00:48:41;;;;;;;67.45;14.20;;;3.30;99.90;;;;;;5052060;28;20226;-66
2020/12/19 00:51:12;;;;;;;70.53;15.30;;;3.30;99.90;;;;;;5051545;28;20225;-67
2020/12/19 00:53:38;;;;;;;69.20;13.35;;;3.40;99.90;;;;;;5052004;28;20213;-67
2020/12/19 00:56:05;;;;;;;71.07;14.73;;;3.30;99.90;;;;;;5052055;28;20209;-66
2020/12/19 00:58:31;;;;;;;69.75;13.50;;;3.30;99.90;;;;;;5051673;28;20592;-66
2020/12/19 01:00:58;;;;;;;71.68;13.95;;;3.30;99.90;;;;;;5051872;28;20206;-66
2020/12/19 01:03:25;;;;;;;70.78;14.68;;;3.30;99.90;;;;;;5051428;28;20231;-66
2020/12/19 01:05:51;;;;;;;72.90;15.93;;;3.40;99.90;;;;;;5051473;28;20214;-66
2020/12/19 01:08:17;;;;;;;74.55;14.88;;;3.40;99.90;;;;;;5051620;28;20528;-66
2020/12/19 01:10:44;;;;;;;72.53;14.80;;;3.40;99.90;;;;;;5051464;28;20714;-66
2020/12/19 01:13:10;;;;;;;70.80;16.00;;;3.50;99.90;;;;;;5051215;28;20211;-67
2020/12/19 01:15:36;;;;;;;75.75;16.60;;;3.50;99.90;;;;;;5051532;28;20214;-66
2020/12/19 01:18:03;;;;;;;74.05;15.93;;;3.50;99.90;;;;;;5051402;28;20234;-66
2020/12/19 01:20:30;;;;;;;70.68;14.60;;;3.40;99.90;;;;;;5051321;28;20264;-65
2020/12/19 01:22:56;;;;;;;71.97;15.48;;;3.40;99.90;;;;;;5051423;28;20234;-66
2020/12/19 01:25:22;;;;;;;71.90;13.80;;;3.40;99.90;;;;;;5051540;28;20206;-66
2020/12/19 01:27:49;;;;;;;71.70;14.98;;;3.30;99.90;;;;;;5051421;28;20205;-66
2020/12/19 01:30:15;;;;;;;68.85;13.57;;;3.30;99.90;;;;;;5051251;28;20213;-66
2020/12/19 01:32:41;;;;;;;70.85;13.40;;;3.20;99.90;;;;;;5051075;28;20291;-66
2020/12/19 01:35:08;;;;;;;68.45;13.98;;;3.20;99.90;;;;;;5050997;28;20246;-66
2020/12/19 01:37:35;;;;;;;70.78;15.15;;;3.20;99.90;;;;;;5051415;28;20240;-66
2020/12/19 01:40:01;;;;;;;72.28;14.93;;;3.20;99.90;;;;;;5051263;28;20270;-66
2020/12/19 01:42:27;;;;;;;70.72;13.77;;;3.10;99.90;;;;;;5051356;28;20209;-66
2020/12/19 01:44:53;;;;;;;72.25;14.95;;;3.10;99.90;;;;;;5052957;28;20205;-66
2020/12/19 01:47:22;;;;;;;73.00;14.70;;;3.10;99.90;;;;;;5055651;28;20657;-66
2020/12/19 01:49:49;;;;;;;70.93;15.13;;;3.10;99.90;;;;;;5055134;28;20244;-65
2020/12/19 01:52:20;;;;;;;72.47;14.85;;;3.00;99.90;;;;;;5054892;28;20777;-66
2020/12/19 01:54:48;;;;;;;73.10;15.07;;;3.00;99.90;;;;;;5055199;28;20216;-66
2020/12/19 01:57:17;;;;;;;72.72;15.25;;;3.00;99.90;;;;;;5055362;28;20209;-66
2020/12/19 01:59:44;;;;;;;71.13;13.90;;;3.00;99.90;;;;;;5055475;28;20251;-66
2020/12/19 02:02:11;;;;;;;71.38;14.02;;;2.90;99.90;;;;;;5056649;28;20236;-66
2020/12/19 02:04:38;;;;;;;71.38;13.30;;;2.90;99.90;;;;;;5056136;28;20205;-67
2020/12/19 02:07:06;;;;;;;69.55;13.77;;;2.90;99.90;;;;;;5055285;28;20237;-66
2020/12/19 02:09:37;;;;;;;73.43;16.42;;;2.90;99.90;;;;;;5054806;28;20309;-67
2020/12/19 02:12:04;;;;;;;68.53;12.70;;;2.80;99.90;;;;;;5054747;28;20229;-65
2020/12/19 02:14:31;;;;;;;70.18;13.88;;;2.80;99.90;;;;;;5054581;28;20209;-66
2020/12/19 02:16:59;;;;;;;68.80;14.30;;;2.80;99.90;;;;;;5055055;28;20205;-65
2020/12/19 02:19:26;;;;;;;69.78;13.00;;;2.80;99.90;;;;;;5054460;28;20238;-66
2020/12/19 02:21:53;;;;;;;69.80;14.07;;;2.70;99.90;;;;;;5054665;28;20319;-66
2020/12/19 02:24:21;;;;;;;70.70;13.93;;;2.70;99.90;;;;;;5051981;28;20205;-66
2020/12/19 02:26:48;;;;;;;70.82;14.23;;;2.70;99.90;;;;;;5053871;28;20372;-66
2020/12/19 02:29:15;;;;;;;66.90;13.38;;;2.70;99.90;;;;;;5054454;28;20222;-66
2020/12/19 02:31:41;;;;;;;67.10;12.48;;;2.70;99.90;;;;;;5054453;28;20225;-67
2020/12/19 02:34:07;;;;;;;71.38;14.45;;;2.70;99.90;;;;;;5054307;28;20209;-66
2020/12/19 02:36:35;;;;;;;69.95;13.77;;;2.70;99.90;;;;;;5054538;28;20289;-67
2020/12/19 02:39:01;;;;;;;73.45;13.10;;;2.70;99.90;;;;;;5054058;28;20239;-66
2020/12/19 02:41:29;;;;;;;70.47;14.02;;;2.60;99.90;;;;;;5054511;28;20289;-68
2020/12/19 02:43:56;;;;;;;69.07;12.90;;;2.60;99.90;;;;;;5054083;28;20214;-68
2020/12/19 02:46:23;;;;;;;70.30;12.85;;;2.60;99.90;;;;;;5054285;28;20216;-68
2020/12/19 02:48:50;;;;;;;69.72;13.80;;;2.60;99.90;;;;;;5054104;28;20232;-68
2020/12/19 02:51:16;;;;;;;69.72;13.23;;;2.60;99.90;;;;;;5054026;28;20697;-67
2020/12/19 02:53:43;;;;;;;72.35;14.00;;;2.50;99.90;;;;;;5053812;28;20336;-68
2020/12/19 02:56:09;;;;;;;67.65;13.10;;;2.50;99.90;;;;;;5053815;28;20835;-67
2020/12/19 02:58:36;;;;;;;69.97;13.40;;;2.50;99.90;;;;;;5053992;28;20644;-67
2020/12/19 03:01:03;;;;;;;69.05;12.82;;;2.50;99.90;;;;;;5054127;28;20228;-67
2020/12/19 03:03:29;;;;;;;67.03;13.27;;;2.40;99.90;;;;;;5053608;28;20275;-68
2020/12/19 03:05:55;;;;;;;68.60;13.07;;;2.40;99.90;;;;;;5053712;28;20229;-67
2020/12/19 03:08:22;;;;;;;67.97;12.52;;;2.40;99.90;;;;;;5054128;28;20588;-67
2020/12/19 03:10:48;;;;;;;67.90;12.85;;;2.40;99.90;;;;;;5053941;28;20651;-67
2020/12/19 03:13:14;;;;;;;69.70;13.30;;;2.30;99.90;;;;;;5053332;28;20226;-67
2020/12/19 03:15:42;;;;;;;69.60;14.52;;;2.30;99.90;;;;;;5053858;28;20201;-67
2020/12/19 03:18:08;;;;;;;69.47;12.88;;;2.30;99.90;;;;;;5053493;28;20268;-67
2020/12/19 03:20:35;;;;;;;75.05;14.30;;;2.30;99.90;;;;;;5053486;28;20213;-67
2020/12/19 03:23:01;;;;;;;69.20;14.23;;;2.30;99.90;;;;;;5053540;28;20209;-67
2020/12/19 03:25:28;;;;;;;69.22;12.80;;;2.30;99.90;;;;;;5053581;28;20212;-68
2020/12/19 03:27:54;;;;;;;71.10;13.95;;;2.30;99.90;;;;;;5053546;28;20302;-67
2020/12/19 03:30:23;;;;;;;69.10;12.45;;;2.20;99.90;;;;;;5053400;28;20205;-67
2020/12/19 03:32:51;;;;;;;68.07;13.95;;;2.20;99.90;;;;;;5053125;28;20226;-67
2020/12/19 03:35:17;;;;;;;70.15;13.48;;;2.20;99.90;;;;;;5053149;28;20700;-67
2020/12/19 03:37:43;;;;;;;68.90;13.65;;;2.20;99.90;;;;;;5053439;28;20213;-67
2020/12/19 03:40:10;;;;;;;69.20;12.73;;;2.20;99.90;;;;;;5053292;28;20205;-68
2020/12/19 03:42:36;;;;;;;67.55;13.60;;;2.20;99.90;;;;;;5052967;28;20206;-68
2020/12/19 03:45:03;;;;;;;69.70;11.45;;;2.10;99.90;;;;;;5053198;28;20216;-67
2020/12/19 03:47:30;;;;;;;65.78;11.73;;;2.10;99.90;;;;;;5053101;28;20229;-67
2020/12/19 03:49:57;;;;;;;67.43;12.55;;;2.10;99.90;;;;;;5052930;28;20620;-68
2020/12/19 03:52:23;;;;;;;70.55;13.20;;;2.10;99.90;;;;;;5052966;28;20290;-67
2020/12/19 03:54:49;;;;;;;69.28;13.18;;;2.00;99.90;;;;;;5053168;28;20292;-67
2020/12/19 03:57:16;;;;;;;66.63;11.80;;;2.00;99.90;;;;;;5054428;28;20661;-67
2020/12/19 03:59:42;;;;;;;69.97;13.43;;;2.00;99.90;;;;;;5058141;28;20229;-67
2020/12/19 04:02:09;;;;;;;75.75;13.55;;;1.90;99.90;;;;;;5054562;28;20227;-68
2020/12/19 04:04:35;;;;;;;73.88;12.80;;;1.90;99.80;;;;;;5053142;28;20205;-67
2020/12/19 04:07:02;;;;;;;68.70;12.85;;;1.90;99.90;;;;;;5052268;28;20212;-68
2020/12/19 04:09:29;;;;;;;68.55;11.85;;;1.90;99.90;;;;;;5052760;28;20609;-67
2020/12/19 04:11:55;;;;;;;68.03;12.75;;;1.80;99.90;;;;;;5052240;28;20226;-67
2020/12/19 04:14:22;;;;;;;73.55;13.50;;;1.80;99.60;;;;;;5052491;28;20202;-68
2020/12/19 04:16:48;;;;;;;72.57;13.95;;;1.70;99.30;;;;;;5052449;28;20202;-67
2020/12/19 04:19:14;;;;;;;67.88;12.32;;;1.70;99.60;;;;;;5052310;28;20267;-66
2020/12/19 04:21:41;;;;;;;65.47;11.73;;;1.70;99.70;;;;;;5052645;28;20206;-67
2020/12/19 04:24:08;;;;;;;68.88;13.05;;;1.60;99.70;;;;;;5052182;28;20213;-68
2020/12/19 04:26:34;;;;;;;67.47;12.20;;;1.60;99.70;;;;;;5052202;28;20205;-68
2020/12/19 04:29:01;;;;;;;68.55;12.43;;;1.60;99.90;;;;;;5052654;28;20359;-67
2020/12/19 04:31:27;;;;;;;67.30;13.10;;;1.60;99.90;;;;;;5052108;28;20237;-66
2020/12/19 04:33:53;;;;;;;72.13;14.65;;;1.60;99.90;;;;;;5051804;28;20670;-67
2020/12/19 04:36:19;;;;;;;67.43;12.38;;;1.60;99.90;;;;;;5052526;28;20293;-68
2020/12/19 04:38:46;;;;;;;70.28;12.63;;;1.60;99.90;;;;;;5052025;28;20790;-67
2020/12/19 04:41:13;;;;;;;67.20;12.23;;;1.60;99.90;;;;;;5051871;28;20209;-68
2020/12/19 04:43:40;;;;;;;69.03;12.98;;;1.50;99.90;;;;;;5051993;28;20443;-67
2020/12/19 04:46:06;;;;;;;67.32;13.40;;;1.50;99.90;;;;;;5051787;28;20251;-68
2020/12/19 04:48:32;;;;;;;67.32;12.35;;;1.50;99.90;;;;;;5052490;28;20231;-67
2020/12/19 04:50:59;;;;;;;73.93;14.95;;;1.50;99.90;;;;;;5051754;28;20210;-67
2020/12/19 04:53:25;;;;;;;67.85;12.07;;;1.50;99.90;;;;;;5051555;28;20259;-68
2020/12/19 04:55:51;;;;;;;71.35;12.40;;;1.50;99.90;;;;;;5051851;28;20206;-66
2020/12/19 04:58:19;;;;;;;70.05;13.00;;;1.50;99.90;;;;;;5051733;28;20234;-67
2020/12/19 05:00:46;;;;;;;67.72;12.45;;;1.50;99.90;;;;;;5051672;28;20216;-67
2020/12/19 05:03:12;;;;;;;69.57;13.38;;;1.50;99.90;;;;;;5051609;28;20212;-66
2020/12/19 05:05:41;;;;;;;70.90;13.45;;;1.50;99.90;;;;;;5051690;28;20212;-67
2020/12/19 05:08:08;;;;;;;70.50;14.98;;;1.40;99.90;;;;;;5051526;28;20230;-68
2020/12/19 05:10:35;;;;;;;69.88;13.90;;;1.40;99.90;;;;;;5051652;28;20210;-69
2020/12/19 05:13:01;;;;;;;74.28;13.77;;;1.40;99.90;;;;;;5050978;28;20739;-68
2020/12/19 05:15:29;;;;;;;68.82;13.27;;;1.40;99.90;;;;;;5051796;28;20270;-67
2020/12/19 05:17:57;;;;;;;73.50;13.68;;;1.40;99.90;;;;;;5051530;28;20669;-68
2020/12/19 05:20:24;;;;;;;68.00;13.48;;;1.40;99.90;;;;;;5051489;28;20237;-67
2020/12/19 05:22:52;;;;;;;70.72;13.75;;;1.40;99.90;;;;;;5051025;28;20206;-69
2020/12/19 05:25:20;;;;;;;72.28;14.27;;;1.40;99.90;;;;;;5050526;28;20574;-67
2020/12/19 05:27:48;;;;;;;67.65;13.13;;;1.40;99.90;;;;;;5049966;28;20217;-68
2020/12/19 05:30:15;;;;;;;71.65;13.80;;;1.40;99.90;;;;;;5050806;28;20686;-67
2020/12/19 05:32:45;;;;;;;69.85;12.18;;;1.40;99.90;;;;;;5051641;28;20296;-67
2020/12/19 05:35:13;;;;;;;70.50;13.50;;;1.40;99.90;;;;;;5050383;28;20205;-68
2020/12/19 05:37:39;;;;;;;66.95;12.43;;;1.40;99.90;;;;;;5050627;28;20696;-68
2020/12/19 05:40:12;;;;;;;71.07;13.05;;;1.40;99.90;;;;;;5050757;28;20216;-67
2020/12/19 05:42:39;;;;;;;72.88;12.82;;;1.40;99.90;;;;;;5050647;28;20208;-67
2020/12/19 05:45:16;;;;;;;67.82;13.07;;;1.40;99.90;;;;;;5050759;28;20262;-67
2020/12/19 05:47:43;;;;;;;72.82;13.02;;;1.40;99.90;;;;;;5050797;28;20215;-67
2020/12/19 05:50:10;;;;;;;69.82;14.60;;;1.40;99.90;;;;;;5050847;28;20241;-67
2020/12/19 05:52:38;;;;;;;69.78;13.80;;;1.40;99.90;;;;;;5050198;28;20261;-67
2020/12/19 05:55:07;;;;;;;67.70;12.65;;;1.40;99.90;;;;;;5051153;28;20681;-67
2020/12/19 05:57:35;;;;;;;70.88;13.57;;;1.40;99.90;;;;;;5052961;28;20691;-67
2020/12/19 06:00:04;;;;;;;67.25;12.02;;;1.40;99.90;;;;;;5054627;28;20691;-68
2020/12/19 06:02:31;;;;;;;71.22;14.10;;;1.30;99.90;;;;;;5050695;28;20800;-68
2020/12/19 06:05:00;;;;;;;78.82;17.92;;;1.30;99.90;;;;;;5050696;28;20596;-67
2020/12/19 06:07:29;;;;;;;74.75;15.88;;;1.30;99.90;;;;;;5050124;28;20217;-68
2020/12/19 06:09:55;;;;;;;67.93;13.23;;;1.20;99.90;;;;;;5051028;28;20225;-67
2020/12/19 06:12:35;;;;;;;68.10;12.38;;;1.20;99.90;;;;;;5050761;28;20236;-68
2020/12/19 06:15:05;;;;;;;72.82;14.27;;;1.20;99.90;;;;;;5050469;28;20213;-68
2020/12/19 06:17:46;;;;;;;72.18;14.30;;;1.10;99.90;;;;;;5050321;28;20201;-67
2020/12/19 06:20:16;;;;;;;76.40;14.15;;;1.10;99.90;;;;;;5050597;28;20296;-69
2020/12/19 06:22:42;;;;;;;68.20;12.48;;;1.10;99.90;;;;;;5050416;28;20407;-67
2020/12/19 06:25:09;;;;;;;72.18;13.82;;;1.10;99.90;;;;;;5050182;28;20213;-68
2020/12/19 06:27:40;;;;;;;68.93;12.88;;;1.00;99.90;;;;;;5050809;28;20233;-68
2020/12/19 06:30:21;;;;;;;73.45;14.60;;;1.00;99.90;;;;;;5050591;28;20210;-68
2020/12/19 06:32:48;;;;;;;84.38;17.08;;;1.00;99.90;;;;;;5054145;28;20225;-67
2020/12/19 06:35:15;;;;;;;84.07;17.13;;;1.00;99.90;;;;;;5054517;28;20206;-67
2020/12/19 06:37:42;;;;;;;72.10;13.82;;;1.00;99.90;;;;;;5054181;28;20213;-67
2020/12/19 06:40:11;;;;;;;74.38;13.77;;;1.00;99.90;;;;;;5054227;28;20225;-67
2020/12/19 06:42:38;;;;;;;74.03;15.20;;;1.00;99.90;;;;;;5053749;28;20672;-67
2020/12/19 06:45:24;;;;;;;70.47;14.68;;;1.00;99.90;;;;;;5054519;28;20210;-67
2020/12/19 06:47:52;;;;;;;74.15;14.15;;;0.90;99.90;;;;;;5054147;28;20336;-67
2020/12/19 06:50:20;;;;;;;76.80;17.38;;;0.80;99.80;;;;;;5054003;28;20696;-67
2020/12/19 06:52:54;;;;;;;74.43;15.40;;;0.80;99.90;;;;;;5053227;28;20230;-67
2020/12/19 06:55:21;;;;;;;76.20;15.88;;;0.80;99.80;;;;;;5053549;28;20214;-68
2020/12/19 06:57:51;;;;;;;71.55;14.38;;;0.70;99.60;;;;;;5053426;28;20209;-68
2020/12/19 07:00:19;;;;;;;71.50;15.75;;;0.70;99.90;;;;;;5053269;28;20220;-68
2020/12/19 07:02:53;;;;;;;71.85;14.73;;;0.70;99.90;;;;;;5053290;28;20206;-68
2020/12/19 07:05:25;;;;;;;73.88;14.60;;;0.70;99.90;;;;;;5053286;28;20205;-68
2020/12/19 07:07:52;;;;;;;72.35;14.57;;;0.70;99.90;;;;;;5053565;28;20233;-68
2020/12/19 07:10:32;;;;;;;72.25;14.75;;;0.80;99.90;;;;;;5053602;28;20584;-69
2020/12/19 07:12:59;;;;;;;69.18;13.57;;;0.80;99.90;;;;;;5053222;28;20604;-67
2020/12/19 07:15:45;;;;;;;74.78;16.17;;;0.80;99.90;;;;;;5053525;28;20205;-68
2020/12/19 07:18:26;;;;;;;72.93;14.65;;;0.80;99.90;;;;;;5053357;28;20725;-69
2020/12/19 07:21:00;;;;;;;74.50;15.60;;;0.80;99.90;;;;;;5053088;28;20209;-68
2020/12/19 07:23:27;;;;;;;75.80;16.85;;;0.80;99.90;;;;;;5052588;28;20231;-68
2020/12/19 07:25:54;;;;;;;72.22;16.17;;;0.90;99.90;;;;;;5052780;28;20202;-67
2020/12/19 07:28:20;;;;;;;72.50;16.73;;;0.90;99.90;;;;;;5053123;28;20230;-68
2020/12/19 07:30:47;;;;;;;73.55;15.23;;;0.90;99.90;;;;;;5052806;28;20693;-68
2020/12/19 07:33:13;;;;;;;70.07;14.02;;;0.90;99.90;;;;;;5053389;28;20241;-68
2020/12/19 07:35:40;;;;;;;66.85;13.27;;;0.90;99.90;;;;;;5053136;28;20212;-68
2020/12/19 07:38:07;;;;;;;73.90;15.13;;;1.00;99.90;;;;;;5053124;28;20344;-68
2020/12/19 07:40:34;;;;;;;69.95;14.07;;;1.00;99.90;;;;;;5053461;28;20206;-68
2020/12/19 07:43:00;;;;;;;70.90;15.38;;;1.10;99.90;;;;;;5051310;28;20212;-67
2020/12/19 07:45:27;;;;;;;74.35;14.65;;;1.10;99.90;;;;;;5053371;28;20216;-68
2020/12/19 07:47:53;;;;;;;69.47;14.75;;;1.10;99.90;;;;;;5052938;28;20721;-68
2020/12/19 07:50:24;;;;;;;71.03;13.93;;;1.20;99.90;;;;;;5052952;28;20681;-67
2020/12/19 07:52:59;;;;;;;71.53;14.60;;;1.20;99.90;;;;;;5052652;28;20316;-67
2020/12/19 07:55:26;;;;;;;71.68;15.90;;;1.30;99.90;;;;;;5053910;28;20212;-67
2020/12/19 07:57:54;;;;;;;73.00;16.17;;;1.30;99.90;;;;;;5056092;28;20236;-67
2020/12/19 08:00:20;;;;;;;70.20;15.77;;;1.30;99.90;;;;;;5053043;28;20212;-67
2020/12/19 08:02:47;;;;;;;71.15;15.13;;;1.40;99.90;;;;;;5052725;28;20278;-67
2020/12/19 08:05:13;;;;;;;70.45;14.75;;;1.40;99.90;;;;;;5052683;28;20704;-67
2020/12/19 08:07:39;;;;;;;71.03;15.02;;;1.40;99.90;;;;;;5053167;28;20308;-67
2020/12/19 08:10:07;;;;;;;70.47;14.80;;;1.40;99.90;;;;;;5053088;28;20237;-67
2020/12/19 08:12:35;;;;;;;70.50;13.57;;;1.50;99.90;;;;;;5052636;28;20592;-68
2020/12/19 08:15:03;;;;;;;72.38;15.30;;;1.50;99.90;;;;;;5052713;28;20206;-67
2020/12/19 08:17:32;;;;;;;69.40;15.63;;;1.60;99.90;;;;;;5052887;28;20202;-68
2020/12/19 08:20:00;;;;;;;68.25;13.80;;;1.60;99.90;;;;;;5052977;28;20205;-67
2020/12/19 08:22:29;;;;;;;72.28;13.95;;;1.60;99.90;;;;;;5055696;28;20202;-67
2020/12/19 08:24:56;;;;;;;71.28;14.20;;;1.70;99.90;;;;;;5057590;28;20209;-68
2020/12/19 08:27:43;;;;;;;71.18;14.18;;;1.80;99.90;;;;;;5058933;28;20587;-68
2020/12/19 08:30:17;;;;;;;68.65;12.95;;;1.80;99.90;;;;;;5057852;28;20208;-67
2020/12/19 08:32:46;;;;;;;74.35;16.00;;;1.90;99.90;;;;;;5058603;28;20221;-68
2020/12/19 08:35:20;;;;;;;72.30;14.30;;;2.00;99.90;;;;;;5056194;28;20301;-67
2020/12/19 08:37:47;;;;;;;69.93;13.07;;;2.00;99.90;;;;;;5053312;28;20311;-68
2020/12/19 08:40:15;;;;;;;69.20;13.45;;;2.10;99.90;;;;;;5052348;28;20291;-67
2020/12/19 08:42:43;;;;;;;70.82;14.43;;;2.20;99.90;;;;;;5052166;28;20201;-66
2020/12/19 08:45:24;;;;;;;67.63;13.90;;;2.20;99.90;;;;;;5052317;28;20210;-66
2020/12/19 08:47:56;;;;;;;68.57;13.48;;;2.30;99.90;;;;;;5051658;28;20268;-66
2020/12/19 08:50:30;;;;;;;70.53;13.88;;;2.40;99.90;;;;;;5052130;28;20213;-66
2020/12/19 08:53:18;;;;;;;69.63;13.88;;;2.50;99.90;;;;;;5051370;28;20260;-67
2020/12/19 08:55:45;;;;;;;72.40;15.60;;;2.60;99.90;;;;;;5043766;28;20211;-68
2020/12/19 08:58:23;;;;;;;69.57;14.30;;;2.70;99.90;;;;;;5051599;28;20225;-68
2020/12/19 09:00:50;;;;;;;72.82;14.00;;;2.70;99.90;;;;;;5051953;28;20205;-68
2020/12/19 09:03:26;;;;;;;73.03;14.55;;;2.90;99.90;;;;;;5051433;28;20209;-66
2020/12/19 09:05:59;;;;;;;69.93;13.45;;;2.90;99.90;;;;;;5051369;28;20251;-66
2020/12/19 09:08:31;;;;;;;69.88;13.95;;;3.10;99.90;;;;;;5051463;28;20229;-66
2020/12/19 09:10:58;;;;;;;66.50;13.00;;;3.20;99.90;;;;;;5051782;28;20205;-67
2020/12/19 09:13:25;;;;;;;69.35;13.05;;;3.30;99.90;;;;;;5051648;28;20257;-67
2020/12/19 09:15:54;;;;;;;70.78;14.27;;;3.30;99.90;;;;;;5051693;28;20727;-66
2020/12/19 09:18:23;;;;;;;67.72;13.18;;;3.50;99.90;;;;;;5051464;28;20324;-66
2020/12/19 09:20:56;;;;;;;71.45;13.23;;;3.60;99.90;;;;;;5051706;28;20205;-67
2020/12/19 09:23:24;;;;;;;68.80;13.52;;;3.70;99.90;;;;;;5051575;28;20206;-67
2020/12/19 09:25:51;;;;;;;72.00;14.57;;;3.90;99.90;;;;;;5051867;28;20212;-66
2020/12/19 09:28:17;;;;;;;67.90;14.27;;;4.00;99.90;;;;;;5051573;28;20253;-67
2020/12/19 09:30:45;;;;;;;68.78;14.20;;;4.20;99.90;;;;;;5051249;28;20732;-67
2020/12/19 09:33:12;;;;;;;73.80;13.90;;;4.40;99.90;;;;;;5051177;28;20229;-66
2020/12/19 09:35:38;;;;;;;66.70;13.52;;;4.60;99.90;;;;;;5051159;28;20229;-66
2020/12/19 09:38:05;;;;;;;69.38;13.32;;;4.80;99.30;;;;;;5051850;28;20696;-67
2020/12/19 09:40:32;;;;;;;68.65;13.75;;;5.10;99.30;;;;;;5051153;28;20206;-67
2020/12/19 09:42:58;;;;;;;68.72;13.18;;;5.40;97.20;;;;;;5051256;28;20289;-67
2020/12/19 09:45:25;;;;;;;68.28;12.10;;;5.70;92.30;;;;;;5051319;28;20201;-67
2020/12/19 09:47:56;;;;;;;65.30;11.60;;;5.90;85.60;;;;;;5051659;28;20229;-67
2020/12/19 09:50:24;;;;;;;64.25;10.38;;;6.20;76.50;;;;;;5051092;28;20741;-67
2020/12/19 09:52:50;;;;;;;68.30;10.68;;;6.40;61.30;;;;;;5051104;28;20226;-67
2020/12/19 09:55:17;;;;;;;63.42;10.60;;;6.50;45.50;;;;;;5051348;28;20216;-68
2020/12/19 09:57:43;;;;;;;65.50;10.70;;;6.70;29.20;;;;;;5053052;28;20558;-68
2020/12/19 10:00:11;;;;;;;63.40;8.43;;;6.90;14.50;;;;;;5051892;28;20214;-67
2020/12/19 10:02:38;;;;;;;63.40;8.55;;;7.00;1.80;;;;;;5050591;28;20561;-65
2020/12/19 10:05:05;;;;;;;61.57;8.00;;;7.30;1.00;;;;;;5051414;28;20252;-66
2020/12/19 10:07:31;;;;;;;62.00;8.60;;;7.90;66.40;;;;;;5055149;28;20500;-68
2020/12/19 10:09:58;;;;;;;65.70;8.60;;;8.70;99.90;;;;;;5055186;28;20490;-66
2020/12/19 10:12:24;;;;;;;62.60;7.77;;;9.80;4.70;;;;;;5054965;28;20543;-66
2020/12/19 10:14:50;;;;;;;62.47;8.00;;;11.10;1.00;;;;;;5054803;28;20823;-66
2020/12/19 10:17:17;;;;;;;62.60;8.17;;;12.30;1.00;;;;;;5054603;28;20455;-66
2020/12/19 10:19:43;;;;;;;61.80;7.47;;;13.10;1.00;;;;;;5054413;28;20480;-65
2020/12/19 10:22:10;;;;;;;61.10;8.13;;;13.80;1.00;;;;;;5054829;28;20969;-66
2020/12/19 10:24:37;;;;;;;60.97;7.10;;;14.30;1.00;;;;;;5054579;28;20455;-66
2020/12/19 10:27:03;;;;;;;62.30;7.23;;;14.80;1.00;;;;;;5054676;28;20818;-66
2020/12/19 10:29:29;;;;;;;61.00;7.00;;;15.30;1.00;;;;;;5054321;28;20472;-66
2020/12/19 10:31:56;;;;;;;60.27;6.87;;;16.00;1.00;;;;;;5053253;28;20502;-66
2020/12/19 10:34:22;;;;;;;60.60;7.23;;;16.60;1.00;;;;;;5054477;28;20875;-66
2020/12/19 10:36:52;;;;;;;62.57;7.40;;;16.90;1.00;;;;;;5054568;28;20476;-66
2020/12/19 10:39:19;;;;;;;60.30;6.90;;;17.40;1.00;;;;;;5054421;28;20842;-66
2020/12/19 10:41:49;;;;;;;61.00;7.40;;;17.90;1.00;;;;;;5054578;28;20450;-66
2020/12/19 10:44:16;;;;;;;62.20;6.83;;;18.50;1.00;;;;;;5053965;28;20491;-66
2020/12/19 10:46:43;;;;;;;60.30;6.83;;;18.90;1.00;;;;;;5054239;28;20454;-66
2020/12/19 10:49:09;;;;;;;62.33;7.33;;;19.30;1.00;;;;;;5054487;28;20958;-66
2020/12/19 10:51:36;;;;;;;60.33;6.73;;;19.50;1.00;;;;;;5054363;28;21038;-66
2020/12/19 10:54:02;;;;;;;62.63;7.13;;;19.80;1.00;;;;;;5054015;28;20526;-66
2020/12/19 10:56:30;;;;;;;63.13;7.70;;;20.10;1.00;;;;;;5054173;28;20448;-66
2020/12/19 10:58:56;;;;;;;60.47;7.10;;;20.60;1.00;;;;;;5053947;28;20478;-66
2020/12/19 11:01:22;;;;;;;60.47;6.40;;;21.00;1.00;;;;;;5054163;28;20447;-66
2020/12/19 11:03:49;;;;;;;59.03;6.60;;;21.20;1.00;;;;;;5053950;28;20502;-66
2020/12/19 11:06:19;;;;;;;60.10;6.90;;;21.10;1.00;;;;;;5053934;28;20856;-66
2020/12/19 11:08:46;;;;;;;60.90;7.00;;;21.10;1.00;;;;;;5053864;28;21001;-66
2020/12/19 11:11:13;;;;;;;61.47;7.57;;;21.30;1.00;;;;;;5054016;28;20776;-66
2020/12/19 11:13:40;;;;;;;60.60;7.00;;;21.70;1.00;;;;;;5053695;28;20534;-66
2020/12/19 11:16:07;;;;;;;61.70;7.07;;;22.00;1.00;;;;;;5053804;28;20477;-66
2020/12/19 11:18:33;;;;;;;62.60;6.53;;;22.30;1.00;;;;;;5053528;28;20476;-66
2020/12/19 11:21:00;;;;;;;59.20;6.40;;;22.70;1.00;;;;;;5054147;28;20454;-66
2020/12/19 11:23:26;;;;;;;61.77;7.63;;;22.90;1.00;;;;;;5053248;28;20453;-66
2020/12/19 11:25:55;;;;;;;60.27;6.33;;;23.20;1.00;;;;;;5053290;28;20483;-66
2020/12/19 11:28:21;;;;;;;61.97;6.90;;;23.40;1.00;;;;;;5053583;28;20483;-66
2020/12/19 11:30:49;;;;;;;61.77;7.50;;;23.70;1.00;;;;;;5053598;28;21027;-66
2020/12/19 11:33:15;;;;;;;58.30;5.90;;;24.00;1.00;;;;;;5053289;28;20538;-66
2020/12/19 11:35:41;;;;;;;58.90;6.50;;;24.50;1.00;;;;;;5053237;28;20475;-66
2020/12/19 11:38:08;;;;;;;62.87;7.03;;;24.90;1.00;;;;;;5053319;28;20590;-66
2020/12/19 11:40:34;;;;;;;61.60;6.43;;;25.40;1.00;;;;;;5052858;28;20452;-66
2020/12/19 11:43:01;;;;;;;59.90;6.27;;;25.60;1.00;;;;;;5050628;28;20519;-66
2020/12/19 11:45:27;;;;;;;60.20;6.60;;;26.10;1.00;;;;;;5050759;28;20449;-66
2020/12/19 11:47:54;;;;;;;60.90;6.60;;;26.30;1.00;;;;;;5079358;22;20555;-70
2020/12/19 11:50:21;;;;;;;60.30;7.00;;;26.40;1.00;;;;;;5089415;28;20466;-70
2020/12/19 11:52:47;;;;;;;62.33;7.20;;;26.40;1.00;;;;;;5093035;28;20492;-71
2020/12/19 11:55:14;;;;;;;60.17;6.67;;;26.50;1.00;;;;;;5092973;28;20455;-71
2020/12/19 11:57:40;;;;;;;60.30;7.53;;;26.70;1.00;;;;;;5093529;28;20825;-71
2020/12/19 12:00:07;;;;;;;63.00;6.50;;;27.00;1.00;;;;;;5092963;28;21001;-71
2020/12/19 12:02:33;;;;;;;60.73;6.37;;;27.70;1.00;;;;;;5093157;28;20445;-70
2020/12/19 12:05:00;;;;;;;58.90;5.50;;;28.40;1.00;;;;;;5092907;28;20545;-70
2020/12/19 12:07:27;;;;;;;58.70;6.20;;;29.00;1.00;;;;;;5092922;28;21017;-71
2020/12/19 12:09:53;;;;;;;58.80;6.40;;;29.50;1.00;;;;;;5092861;28;20988;-69
2020/12/19 12:12:19;;;;;;;59.00;6.40;;;29.90;1.00;;;;;;5093011;28;20484;-68
2020/12/19 12:14:46;;;;;;;61.20;6.80;;;30.10;1.00;;;;;;5092947;28;20447;-70
2020/12/19 12:17:12;;;;;;;60.10;5.57;;;29.50;1.00;;;;;;5093246;28;20449;-70
2020/12/19 12:19:39;;;;;;;59.10;5.80;;;28.10;1.00;;;;;;5093092;28;20557;-69
2020/12/19 12:22:06;;;;;;;59.73;6.07;;;26.60;1.00;;;;;;5092697;28;20454;-70
2020/12/19 12:24:32;;;;;;;59.30;6.20;;;25.60;1.00;;;;;;5092266;28;21025;-70
2020/12/19 12:26:59;;;;;;;59.57;6.13;;;24.80;1.00;;;;;;5092709;28;20464;-70
2020/12/19 12:29:25;;;;;;;60.27;6.60;;;24.40;1.00;;;;;;5091898;28;20502;-70
2020/12/19 12:31:52;;;;;;;58.73;5.70;;;25.40;1.00;;;;;;5092581;28;20458;-71
2020/12/19 12:34:18;;;;;;;60.30;6.33;;;26.90;1.00;;;;;;5092202;28;20488;-68
2020/12/19 12:36:45;;;;;;;61.77;5.70;;;28.30;1.00;;;;;;5092321;28;20870;-68
2020/12/19 12:39:12;;;;;;;59.60;5.83;;;29.40;1.00;;;;;;5092417;28;20569;-68
2020/12/19 12:41:42;;;;;;;59.87;5.50;;;30.20;1.00;;;;;;5092448;28;20449;-67